map of VLC home
VLC - Airport
Location
City:  Valencia, Valenciana, Spain
Name:Manises
ICAO:LEVC
IATA:VLC

Details
Type:Airport (Aerodrome, Airfield)
Use:Public/Civil
Latitude:3929'22"N (39.489314)
Longitude:028'54"W (-0.481624)
Datum:WGS 1984
Elevation:225 ft (69 m)
Variation:0.17E (WMM2015 magnetic declination)
0.11 annual change
Runways:2
Longest:8858 × 148 ft (2700 × 45 m), paved

Time
Time Zone:UTC+1 (DST+2)
Local Time:

Weather
METAR:LEVC 201030Z 13005KT 100V170 9999 FEW025 24/16 Q1020 NOSIG
TAF:LEVC 200500Z 2006/2106 VRB04KT 9999 FEW040 TX27/2013Z TN16/2006Z
TEMPO 2006/2010 BKN014
BECMG 2008/2011 11010KT
BECMG 2018/2021 VRB03KT

Related Locations
Nearby:
Farthest:GIS: 12337 mi / 19855 km
Gisborne, GIS, NZ

Find:

   beyond  
but within

Other Information
Maps:
NOTAMs:
Links:
Sources:

  
flag of Spain
flag of Valenciana
  

Sectional Chart

Flight Planning
at skyvector.com

Satellite Image

Google Maps Satellite view

 

Copyright © 2004-2017 Karl L. Swartz. All rights reserved.
The Great Circle Mapper name and logo are trademarks of the Great Circle Mapper.
All other trademarks mentioned herein belong to their respective owners.
Please see credits for attibutions and further copyright information.

  Follow gcmap on Facebook Follow gcmap on Twitter Follow gcmap on Google+ GCmap on LinkedIn

hCard Microformat

Geo Microformat